createdAt,value
2017-10-02T00:00:10.344Z,54
2017-10-02T00:01:18.431Z,54
2017-10-02T00:02:26.517Z,54
2017-10-02T00:03:34.608Z,54
2017-10-02T00:04:42.693Z,54
2017-10-02T00:05:50.780Z,54
2017-10-02T00:06:58.884Z,54
2017-10-02T00:08:06.972Z,54
2017-10-02T00:09:15.042Z,54
2017-10-02T00:10:23.140Z,54
2017-10-02T00:11:31.226Z,54
2017-10-02T00:12:39.314Z,54
2017-10-02T00:13:47.403Z,54
2017-10-02T00:14:55.491Z,54
2017-10-02T00:16:03.579Z,54
2017-10-02T00:17:11.664Z,54
2017-10-02T00:18:19.753Z,54
2017-10-02T00:19:27.841Z,54
2017-10-02T00:20:35.929Z,54
2017-10-02T00:21:44.017Z,54
2017-10-02T00:22:52.388Z,54
2017-10-02T00:24:00.469Z,54
2017-10-02T00:25:08.556Z,54
2017-10-02T00:26:16.645Z,54
2017-10-02T00:27:24.733Z,54
2017-10-02T00:28:32.842Z,54
2017-10-02T00:29:40.928Z,54
2017-10-02T00:30:49.017Z,54
2017-10-02T00:31:57.105Z,54
2017-10-02T00:33:05.191Z,54
2017-10-02T00:34:13.282Z,54
2017-10-02T00:35:21.369Z,54
2017-10-02T00:36:29.453Z,54
2017-10-02T00:37:37.541Z,54
2017-10-02T00:38:45.627Z,54
2017-10-02T00:39:53.727Z,54
2017-10-02T00:41:01.802Z,54
2017-10-02T00:42:09.890Z,54
2017-10-02T00:43:17.980Z,54
2017-10-02T00:44:26.064Z,54
2017-10-02T00:45:34.151Z,54
2017-10-02T00:46:42.237Z,54
2017-10-02T00:47:50.326Z,54
2017-10-02T00:48:58.413Z,54
2017-10-02T00:50:06.522Z,54
2017-10-02T00:51:14.605Z,54
2017-10-02T00:52:22.694Z,54
2017-10-02T00:53:30.782Z,54
2017-10-02T00:54:38.869Z,54
2017-10-02T00:55:46.960Z,54
2017-10-02T00:56:55.047Z,54
2017-10-02T00:58:03.207Z,54
2017-10-02T00:59:11.221Z,54
2017-10-02T01:00:19.310Z,54
2017-10-02T01:01:27.396Z,54
2017-10-02T01:02:35.482Z,54
2017-10-02T01:03:43.569Z,54
2017-10-02T01:04:51.657Z,54
2017-10-02T01:05:59.745Z,54
2017-10-02T01:07:07.832Z,54
2017-10-02T01:08:15.919Z,54
2017-10-02T01:09:24.014Z,54
2017-10-02T01:10:32.092Z,54
2017-10-02T01:11:40.180Z,54
2017-10-02T01:12:48.273Z,54
2017-10-02T01:13:56.357Z,54
2017-10-02T01:15:04.446Z,54
2017-10-02T01:16:12.532Z,54
2017-10-02T01:17:20.620Z,54
2017-10-02T01:18:28.708Z,54
2017-10-02T01:19:36.795Z,54
2017-10-02T01:20:44.881Z,54
2017-10-02T01:21:52.971Z,54
2017-10-02T01:23:01.059Z,54
2017-10-02T01:24:09.149Z,54
2017-10-02T01:25:17.234Z,54
2017-10-02T01:26:25.321Z,54
2017-10-02T01:27:33.407Z,54
2017-10-02T01:28:41.495Z,54
2017-10-02T01:29:49.581Z,54
2017-10-02T01:30:57.667Z,54
2017-10-02T01:32:05.757Z,54
2017-10-02T01:33:13.843Z,54
2017-10-02T01:34:21.948Z,54
2017-10-02T01:35:30.028Z,54
2017-10-02T01:36:38.116Z,54
2017-10-02T01:37:46.204Z,54
2017-10-02T01:38:54.295Z,54
2017-10-02T01:40:02.377Z,54
2017-10-02T01:41:10.464Z,54
2017-10-02T01:42:18.552Z,54
2017-10-02T01:43:26.640Z,54
2017-10-02T01:44:34.728Z,54
2017-10-02T01:45:42.834Z,54
2017-10-02T01:46:50.920Z,54
2017-10-02T01:47:59.009Z,54
2017-10-02T01:49:07.098Z,54
2017-10-02T01:50:15.184Z,54
2017-10-02T01:51:23.281Z,54
2017-10-02T01:52:31.369Z,54
2017-10-02T01:53:39.456Z,54
2017-10-02T01:54:47.548Z,54
2017-10-02T01:55:55.635Z,54
2017-10-02T01:57:03.723Z,54
2017-10-02T01:58:11.809Z,54
2017-10-02T01:59:19.894Z,54
2017-10-02T02:00:27.981Z,54
2017-10-02T02:01:36.069Z,54
2017-10-02T02:02:44.156Z,54
2017-10-02T02:03:52.243Z,54
2017-10-02T02:05:00.557Z,54
2017-10-02T02:06:08.418Z,54
2017-10-02T02:07:16.506Z,54
2017-10-02T02:08:24.591Z,54
2017-10-02T02:09:32.679Z,54
2017-10-02T02:10:40.765Z,54
2017-10-02T02:11:48.853Z,54
2017-10-02T02:12:56.940Z,54
2017-10-02T02:14:05.027Z,54
2017-10-02T02:15:13.114Z,54
2017-10-02T02:16:21.204Z,54
2017-10-02T02:17:29.288Z,54
2017-10-02T02:18:37.375Z,54
2017-10-02T02:19:45.462Z,54
2017-10-02T02:20:53.546Z,54
2017-10-02T02:22:01.643Z,54
2017-10-02T02:23:09.729Z,54
2017-10-02T02:24:17.821Z,54
2017-10-02T02:25:25.905Z,54
2017-10-02T02:26:33.997Z,54
2017-10-02T02:27:42.077Z,54
2017-10-02T02:28:50.162Z,54
2017-10-02T02:29:58.249Z,54
2017-10-02T02:31:06.342Z,54
2017-10-02T02:32:14.424Z,54
2017-10-02T02:33:22.514Z,54
2017-10-02T02:34:30.599Z,54
2017-10-02T02:35:38.689Z,54
2017-10-02T02:36:46.772Z,54
2017-10-02T02:37:54.859Z,54
2017-10-02T02:39:02.949Z,54
2017-10-02T02:40:11.034Z,54
2017-10-02T02:41:19.119Z,54
2017-10-02T02:42:27.206Z,54
2017-10-02T02:43:35.293Z,54
2017-10-02T02:44:43.379Z,54
2017-10-02T02:45:51.466Z,54
2017-10-02T02:46:59.550Z,54
2017-10-02T02:48:07.735Z,54
2017-10-02T02:49:15.724Z,54
2017-10-02T02:50:23.811Z,54
2017-10-02T02:51:31.906Z,54
2017-10-02T02:52:39.995Z,54
2017-10-02T02:53:48.091Z,54
2017-10-02T02:54:56.175Z,54
2017-10-02T02:56:04.266Z,54
2017-10-02T02:57:12.499Z,54
2017-10-02T02:58:20.437Z,54
2017-10-02T02:59:28.535Z,54
2017-10-02T03:00:36.644Z,54
2017-10-02T03:01:44.714Z,54
2017-10-02T03:02:52.808Z,54
2017-10-02T03:04:00.890Z,54
2017-10-02T03:05:08.977Z,54
2017-10-02T03:06:17.063Z,54
2017-10-02T03:07:25.150Z,54
2017-10-02T03:08:33.235Z,54
2017-10-02T03:09:41.326Z,54
2017-10-02T03:10:49.413Z,54
2017-10-02T03:11:57.518Z,54
2017-10-02T03:13:05.587Z,54
2017-10-02T03:14:13.706Z,54
2017-10-02T03:15:21.792Z,54
2017-10-02T03:16:29.888Z,54
2017-10-02T03:17:37.975Z,54
2017-10-02T03:18:46.062Z,54
2017-10-02T03:19:54.148Z,54
2017-10-02T03:21:02.236Z,54
2017-10-02T03:22:10.322Z,54
2017-10-02T03:23:18.411Z,54
2017-10-02T03:24:26.500Z,54
2017-10-02T03:25:34.585Z,54
2017-10-02T03:26:42.675Z,54
2017-10-02T03:27:50.763Z,54
2017-10-02T03:28:58.849Z,54
2017-10-02T03:30:06.938Z,54
2017-10-02T03:31:15.041Z,54
2017-10-02T03:32:23.128Z,54
2017-10-02T03:33:31.215Z,54
2017-10-02T03:34:39.304Z,54
2017-10-02T03:35:47.387Z,54
2017-10-02T03:36:55.474Z,54
2017-10-02T03:38:03.560Z,54
2017-10-02T03:39:11.647Z,54
2017-10-02T03:40:19.732Z,54
2017-10-02T03:41:27.818Z,54
2017-10-02T03:42:35.905Z,54
2017-10-02T03:43:43.993Z,54
2017-10-02T03:44:52.079Z,54
2017-10-02T03:46:00.174Z,53
2017-10-02T03:47:08.260Z,53
2017-10-02T03:48:16.346Z,53
2017-10-02T03:49:24.432Z,54
2017-10-02T03:50:32.519Z,53
2017-10-02T03:51:40.606Z,54
2017-10-02T03:52:48.692Z,54
2017-10-02T03:53:56.778Z,54
2017-10-02T03:55:04.863Z,53
2017-10-02T03:56:13.125Z,53
2017-10-02T03:57:21.211Z,53
2017-10-02T03:58:29.298Z,53
2017-10-02T03:59:37.384Z,53
2017-10-02T04:00:45.471Z,54
2017-10-02T04:01:53.559Z,53
2017-10-02T04:03:01.645Z,53
2017-10-02T04:04:09.731Z,53
2017-10-02T04:05:17.822Z,53
2017-10-02T04:06:25.902Z,54
2017-10-02T04:07:33.987Z,54
2017-10-02T04:08:42.074Z,53
2017-10-02T04:09:50.165Z,53
2017-10-02T04:10:58.247Z,53
2017-10-02T04:12:06.332Z,54
2017-10-02T04:13:14.428Z,53
2017-10-02T04:14:22.514Z,53
2017-10-02T04:15:30.598Z,53
2017-10-02T04:16:38.686Z,53
2017-10-02T04:17:46.772Z,53
2017-10-02T04:18:54.878Z,53
2017-10-02T04:20:02.945Z,54
2017-10-02T04:21:11.043Z,54
2017-10-02T04:22:19.119Z,54
2017-10-02T04:23:27.206Z,53
2017-10-02T04:24:35.291Z,53
2017-10-02T04:25:43.376Z,53
2017-10-02T04:26:51.467Z,53
2017-10-02T04:27:59.550Z,53
2017-10-02T04:29:07.636Z,53
2017-10-02T04:30:15.728Z,53
2017-10-02T04:31:23.809Z,53
2017-10-02T04:32:31.897Z,53
2017-10-02T04:33:39.982Z,53
2017-10-02T04:34:48.067Z,53
2017-10-02T04:35:56.152Z,53
2017-10-02T04:37:04.242Z,54
2017-10-02T04:38:12.326Z,54
2017-10-02T04:39:20.413Z,53
2017-10-02T04:40:28.517Z,54
2017-10-02T04:41:36.586Z,54
2017-10-02T04:42:44.681Z,54
2017-10-02T04:43:52.757Z,54
2017-10-02T04:45:01.628Z,53
2017-10-02T04:46:08.931Z,53
2017-10-02T04:47:17.016Z,54
2017-10-02T04:48:25.104Z,53
2017-10-02T04:49:33.189Z,53
2017-10-02T04:50:41.274Z,53
2017-10-02T04:51:49.362Z,53
2017-10-02T04:52:57.448Z,53
2017-10-02T04:54:05.534Z,54
2017-10-02T04:55:13.620Z,53
2017-10-02T04:56:21.705Z,53
2017-10-02T04:57:29.792Z,53
2017-10-02T04:58:37.878Z,53
2017-10-02T04:59:45.969Z,53
2017-10-02T05:00:54.049Z,53
2017-10-02T05:02:02.138Z,53
2017-10-02T05:03:10.223Z,53
2017-10-02T05:04:18.307Z,53
2017-10-02T05:05:26.398Z,53
2017-10-02T05:06:34.480Z,53
2017-10-02T05:07:42.565Z,53
2017-10-02T05:08:50.657Z,53
2017-10-02T05:09:58.740Z,53
2017-10-02T05:11:06.829Z,54
2017-10-02T05:12:14.912Z,54
2017-10-02T05:13:23.020Z,54
2017-10-02T05:14:31.081Z,54
2017-10-02T05:15:39.167Z,54
2017-10-02T05:16:47.255Z,54
2017-10-02T05:17:55.342Z,54
2017-10-02T05:19:03.428Z,54
2017-10-02T05:20:11.524Z,54
2017-10-02T05:21:19.599Z,54
2017-10-02T05:22:27.688Z,54
2017-10-02T05:23:35.777Z,54
2017-10-02T05:24:43.865Z,54
2017-10-02T05:25:51.975Z,54
2017-10-02T05:27:00.046Z,54
2017-10-02T05:28:08.125Z,54
2017-10-02T05:29:16.214Z,54
2017-10-02T05:30:24.306Z,54
2017-10-02T05:31:32.392Z,54
2017-10-02T05:32:40.478Z,54
2017-10-02T05:33:48.565Z,54
2017-10-02T05:34:56.659Z,54
2017-10-02T05:36:04.738Z,54
2017-10-02T05:37:12.824Z,54
2017-10-02T05:38:20.919Z,54
2017-10-02T05:39:29.005Z,54
2017-10-02T05:40:37.109Z,54
2017-10-02T05:41:45.177Z,54
2017-10-02T05:42:53.267Z,54
2017-10-02T05:44:01.351Z,54
2017-10-02T05:45:09.437Z,54
2017-10-02T05:46:17.522Z,54
2017-10-02T05:47:25.608Z,54
2017-10-02T05:48:33.694Z,54
2017-10-02T05:49:41.779Z,54
2017-10-02T05:50:49.866Z,54
2017-10-02T05:51:57.952Z,54
2017-10-02T05:53:06.037Z,54
2017-10-02T05:54:14.125Z,54
2017-10-02T05:55:22.210Z,54
2017-10-02T05:56:30.301Z,54
2017-10-02T05:57:38.381Z,54
2017-10-02T05:58:46.483Z,54
2017-10-02T05:59:54.569Z,54
2017-10-02T06:01:02.655Z,54
2017-10-02T06:02:10.741Z,54
2017-10-02T06:03:18.827Z,54
2017-10-02T06:04:26.912Z,54
2017-10-02T06:05:34.998Z,54
2017-10-02T06:06:43.095Z,54
2017-10-02T06:07:51.182Z,54
2017-10-02T06:08:59.265Z,54
2017-10-02T06:10:07.361Z,54
2017-10-02T06:11:15.446Z,55
2017-10-02T06:12:23.533Z,55
2017-10-02T06:13:31.619Z,55
2017-10-02T06:14:39.707Z,54
2017-10-02T06:15:47.795Z,54
2017-10-02T06:16:55.881Z,55
2017-10-02T06:18:03.968Z,55
2017-10-02T06:19:12.054Z,55
2017-10-02T06:20:20.387Z,55
2017-10-02T06:21:28.319Z,55
2017-10-02T06:22:37.230Z,55
2017-10-02T06:23:44.396Z,55
2017-10-02T06:24:52.484Z,55
2017-10-02T06:26:00.569Z,55
2017-10-02T06:27:08.657Z,55
2017-10-02T06:28:16.744Z,55
2017-10-02T06:29:24.829Z,55
2017-10-02T06:30:32.914Z,55
2017-10-02T06:31:41.001Z,55
2017-10-02T06:32:49.093Z,55
2017-10-02T06:33:57.182Z,55
2017-10-02T06:35:05.259Z,55
2017-10-02T06:36:13.345Z,56
2017-10-02T06:37:21.440Z,55
2017-10-02T06:38:29.535Z,55
2017-10-02T06:39:37.610Z,55
2017-10-02T06:40:45.695Z,55
2017-10-02T06:41:53.783Z,55
2017-10-02T06:43:01.869Z,55
2017-10-02T06:44:09.959Z,55
2017-10-02T06:45:18.040Z,55
2017-10-02T06:46:26.127Z,55
2017-10-02T06:47:34.218Z,55
2017-10-02T06:48:42.301Z,55
2017-10-02T06:49:50.385Z,55
2017-10-02T06:50:58.469Z,56
2017-10-02T06:52:06.557Z,56
2017-10-02T06:53:14.644Z,55
2017-10-02T06:54:22.730Z,56
2017-10-02T06:55:30.817Z,56
2017-10-02T06:56:38.901Z,56
2017-10-02T06:57:46.987Z,56
2017-10-02T06:58:55.082Z,56
2017-10-02T07:00:03.169Z,55
2017-10-02T07:01:11.253Z,56
2017-10-02T07:02:19.341Z,56
2017-10-02T07:03:27.427Z,56
2017-10-02T07:04:35.513Z,56
2017-10-02T07:05:43.598Z,55
2017-10-02T07:06:51.682Z,56
2017-10-02T07:07:59.768Z,56
2017-10-02T07:09:07.857Z,56
2017-10-02T07:10:16.011Z,56
2017-10-02T07:11:24.026Z,56
2017-10-02T07:12:32.119Z,56
2017-10-02T07:13:40.202Z,56
2017-10-02T07:14:48.294Z,56
2017-10-02T07:15:56.376Z,56
2017-10-02T07:17:04.480Z,56
2017-10-02T07:18:12.561Z,56
2017-10-02T07:19:20.863Z,56
2017-10-02T07:20:28.729Z,56
2017-10-02T07:21:36.814Z,56
2017-10-02T07:22:44.901Z,56
2017-10-02T07:23:52.986Z,56
2017-10-02T07:25:01.292Z,56
2017-10-02T07:26:09.158Z,56
2017-10-02T07:27:17.245Z,56
2017-10-02T07:28:25.330Z,56
2017-10-02T07:29:33.417Z,56
2017-10-02T07:30:41.503Z,56
2017-10-02T07:31:49.589Z,56
2017-10-02T07:32:57.675Z,56
2017-10-02T07:34:05.814Z,56
2017-10-02T07:35:13.846Z,56
2017-10-02T07:36:21.952Z,56
2017-10-02T07:37:30.020Z,56
2017-10-02T07:38:38.118Z,56
2017-10-02T07:39:46.192Z,56
2017-10-02T07:40:54.277Z,56
2017-10-02T07:42:02.373Z,57
2017-10-02T07:43:10.461Z,56
2017-10-02T07:44:18.546Z,56
2017-10-02T07:45:26.639Z,57
2017-10-02T07:46:34.720Z,56
2017-10-02T07:47:42.812Z,57
2017-10-02T07:48:50.897Z,57
2017-10-02T07:49:58.984Z,57
2017-10-02T07:51:07.072Z,56
2017-10-02T07:52:15.157Z,56
2017-10-02T07:53:23.241Z,56
2017-10-02T07:54:31.328Z,56
2017-10-02T07:55:39.589Z,56
2017-10-02T07:56:47.534Z,56
2017-10-02T07:57:56.381Z,56
2017-10-02T07:59:03.701Z,56
2017-10-02T08:00:11.817Z,56
2017-10-02T08:01:20.024Z,56
2017-10-02T08:02:27.991Z,56
2017-10-02T08:03:36.204Z,56
2017-10-02T08:04:44.159Z,56
2017-10-02T08:05:52.269Z,57
2017-10-02T08:07:00.338Z,57
2017-10-02T08:08:08.405Z,56
2017-10-02T08:09:16.495Z,56
2017-10-02T08:10:24.577Z,56
2017-10-02T08:11:32.664Z,56
2017-10-02T08:12:40.751Z,56
2017-10-02T08:13:48.877Z,57
2017-10-02T08:14:56.930Z,57
2017-10-02T08:16:05.017Z,57
2017-10-02T08:17:13.104Z,57
2017-10-02T08:18:21.189Z,56
2017-10-02T08:19:29.274Z,57
2017-10-02T08:20:37.498Z,57
2017-10-02T08:21:45.467Z,57
2017-10-02T08:22:53.567Z,57
2017-10-02T08:24:02.187Z,57
2017-10-02T08:25:09.701Z,57
2017-10-02T08:26:17.934Z,57
2017-10-02T08:27:25.925Z,57
2017-10-02T08:28:34.056Z,57
2017-10-02T08:29:42.044Z,57
2017-10-02T08:30:50.184Z,57
2017-10-02T08:31:58.240Z,57
2017-10-02T08:33:06.331Z,57
2017-10-02T08:34:14.602Z,57
2017-10-02T08:35:22.475Z,57
2017-10-02T08:36:30.561Z,57
2017-10-02T08:37:38.646Z,57
2017-10-02T08:38:46.742Z,57
2017-10-02T08:39:54.828Z,57
2017-10-02T08:41:02.913Z,57
2017-10-02T08:42:11.000Z,57
2017-10-02T08:43:19.102Z,57
2017-10-02T08:44:27.170Z,57
2017-10-02T08:45:35.256Z,57
2017-10-02T08:46:43.340Z,57
2017-10-02T08:47:51.433Z,57
2017-10-02T08:48:59.512Z,57
2017-10-02T08:50:07.600Z,57
2017-10-02T08:51:15.688Z,57
2017-10-02T08:52:23.769Z,57
2017-10-02T08:53:31.854Z,57
2017-10-02T08:54:39.941Z,57
2017-10-02T08:55:48.026Z,57
2017-10-02T08:56:56.114Z,57
2017-10-02T08:58:04.210Z,57
2017-10-02T08:59:12.288Z,57
2017-10-02T09:00:20.372Z,57
2017-10-02T09:01:28.465Z,57
2017-10-02T09:02:36.542Z,58
2017-10-02T09:03:44.681Z,58
2017-10-02T09:04:53.329Z,58
2017-10-02T09:06:00.801Z,58
2017-10-02T09:07:08.897Z,58
2017-10-02T09:08:17.656Z,58
2017-10-02T09:09:25.740Z,58
2017-10-02T09:10:33.828Z,58
2017-10-02T09:11:41.968Z,57
2017-10-02T09:12:49.998Z,57
2017-10-02T09:15:07.113Z,58
2017-10-02T09:16:15.171Z,57
2017-10-02T09:17:23.257Z,57
2017-10-02T09:18:31.342Z,57
2017-10-02T09:19:39.429Z,57
2017-10-02T09:20:47.520Z,58
2017-10-02T09:21:55.638Z,57
2017-10-02T09:23:03.698Z,58
2017-10-02T09:24:11.772Z,57
2017-10-02T09:25:19.861Z,57
2017-10-02T09:26:27.949Z,57
2017-10-02T09:27:36.034Z,57
2017-10-02T09:28:44.119Z,57
2017-10-02T09:29:52.205Z,58
2017-10-02T09:31:00.403Z,58
2017-10-02T09:32:08.378Z,58
2017-10-02T09:33:16.462Z,58
2017-10-02T09:34:24.551Z,57
2017-10-02T09:35:32.632Z,58
2017-10-02T09:36:40.717Z,58
2017-10-02T09:37:48.814Z,57
2017-10-02T09:38:56.889Z,58
2017-10-02T09:40:04.976Z,57
2017-10-02T09:41:13.269Z,57
2017-10-02T09:42:21.197Z,57
2017-10-02T09:43:29.280Z,57
2017-10-02T09:44:37.370Z,58
2017-10-02T09:45:45.453Z,58
2017-10-02T09:46:53.608Z,58
2017-10-02T09:48:01.821Z,58
2017-10-02T09:49:10.407Z,57
2017-10-02T09:50:18.023Z,58
2017-10-02T09:51:26.098Z,58
2017-10-02T09:52:34.166Z,58
2017-10-02T09:53:42.254Z,58
2017-10-02T09:54:50.338Z,58
2017-10-02T09:55:58.422Z,58
2017-10-02T09:57:06.508Z,58
2017-10-02T09:58:14.592Z,58
2017-10-02T09:59:22.682Z,57
2017-10-02T10:00:30.765Z,57
2017-10-02T10:01:38.851Z,57
2017-10-02T10:02:46.939Z,58
2017-10-02T10:03:55.043Z,57
2017-10-02T10:05:03.108Z,58
2017-10-02T10:06:11.197Z,57
2017-10-02T10:07:19.277Z,58
2017-10-02T10:08:27.362Z,57
2017-10-02T10:09:35.450Z,57
2017-10-02T10:10:43.537Z,58
2017-10-02T10:11:51.633Z,57
2017-10-02T10:12:59.716Z,57
2017-10-02T10:14:07.805Z,58
2017-10-02T10:15:15.910Z,58
2017-10-02T10:16:23.985Z,58
2017-10-02T10:17:32.075Z,58
2017-10-02T10:18:40.168Z,58
2017-10-02T10:19:52.396Z,58
2017-10-02T10:20:56.544Z,57
2017-10-02T10:22:04.632Z,58
2017-10-02T10:23:12.729Z,58
2017-10-02T10:24:20.814Z,58
2017-10-02T10:25:28.905Z,58
2017-10-02T10:26:36.985Z,58
2017-10-02T10:27:45.069Z,58
2017-10-02T10:28:53.181Z,58
2017-10-02T10:30:01.240Z,58
2017-10-02T10:31:09.355Z,58
2017-10-02T10:32:17.418Z,58
2017-10-02T10:33:25.825Z,58
2017-10-02T10:34:33.598Z,57
2017-10-02T10:35:42.635Z,58
2017-10-02T10:36:50.720Z,58
2017-10-02T10:37:58.806Z,58
2017-10-02T10:39:07.139Z,58
2017-10-02T10:40:14.979Z,58
2017-10-02T10:41:23.095Z,58
2017-10-02T10:42:31.149Z,58
2017-10-02T10:43:39.332Z,58
2017-10-02T10:44:47.320Z,58
2017-10-02T10:45:55.406Z,57
2017-10-02T10:47:03.491Z,57
2017-10-02T10:48:11.605Z,58
2017-10-02T10:49:19.663Z,58
2017-10-02T10:50:27.749Z,57
2017-10-02T10:51:35.838Z,58
2017-10-02T10:52:44.279Z,57
2017-10-02T10:53:52.009Z,58
2017-10-02T10:55:00.193Z,57
2017-10-02T10:56:08.180Z,57
2017-10-02T10:57:16.274Z,58
2017-10-02T10:58:24.355Z,57
2017-10-02T10:59:32.438Z,57
2017-10-02T11:00:40.522Z,57
2017-10-02T11:01:48.609Z,58
2017-10-02T11:02:56.694Z,58
2017-10-02T11:04:04.781Z,58
2017-10-02T11:05:12.864Z,58
2017-10-02T11:06:20.950Z,58
2017-10-02T11:07:29.036Z,58
2017-10-02T11:08:37.125Z,57
2017-10-02T11:09:45.385Z,58
2017-10-02T11:10:53.472Z,57
2017-10-02T11:12:01.558Z,58
2017-10-02T11:13:09.646Z,58
2017-10-02T11:14:17.730Z,58
2017-10-02T11:15:25.815Z,58
2017-10-02T11:16:33.907Z,58
2017-10-02T11:17:41.986Z,58
2017-10-02T11:18:50.072Z,58
2017-10-02T11:19:58.176Z,58
2017-10-02T11:21:06.243Z,58
2017-10-02T11:22:14.338Z,58
2017-10-02T11:23:22.427Z,59
2017-10-02T11:24:30.511Z,58
2017-10-02T11:25:38.596Z,58
2017-10-02T11:26:46.700Z,58
2017-10-02T11:27:54.766Z,58
2017-10-02T11:29:02.868Z,58
2017-10-02T11:30:10.955Z,58
2017-10-02T11:31:19.040Z,58
2017-10-02T11:32:27.124Z,58
2017-10-02T11:33:35.210Z,58
2017-10-02T11:34:43.296Z,58
2017-10-02T11:35:51.383Z,58
2017-10-02T11:36:59.471Z,58
2017-10-02T11:38:07.556Z,59
2017-10-02T11:39:15.652Z,58
2017-10-02T11:40:23.727Z,58
2017-10-02T11:41:31.813Z,58
2017-10-02T11:42:39.897Z,58
2017-10-02T11:43:47.989Z,58
2017-10-02T11:44:56.070Z,58
2017-10-02T11:46:04.874Z,58
2017-10-02T11:47:12.961Z,58
2017-10-02T11:48:21.047Z,58
2017-10-02T11:49:29.153Z,58
2017-10-02T11:50:37.226Z,58
2017-10-02T11:51:45.305Z,58
2017-10-02T11:52:53.389Z,58
2017-10-02T11:54:01.474Z,58
2017-10-02T11:55:09.562Z,58
2017-10-02T11:56:17.650Z,58
2017-10-02T11:57:25.742Z,58
2017-10-02T11:58:33.827Z,58
2017-10-02T11:59:41.914Z,59
2017-10-02T12:00:49.999Z,59
2017-10-02T12:01:58.088Z,59
2017-10-02T12:03:06.186Z,59
2017-10-02T12:04:14.272Z,59
2017-10-02T12:05:22.357Z,59
2017-10-02T12:06:30.444Z,59
2017-10-02T12:07:38.529Z,59
2017-10-02T12:08:46.613Z,59
2017-10-02T12:09:54.705Z,59
2017-10-02T12:11:02.790Z,59
2017-10-02T12:12:10.878Z,59
2017-10-02T12:13:18.962Z,59
2017-10-02T12:14:27.049Z,59
2017-10-02T12:15:35.135Z,59
2017-10-02T12:16:43.219Z,59
2017-10-02T12:17:51.304Z,59
2017-10-02T12:18:59.390Z,59
2017-10-02T12:20:07.476Z,59
2017-10-02T12:21:15.562Z,59
2017-10-02T12:22:23.646Z,59
2017-10-02T12:23:31.735Z,59
2017-10-02T12:24:39.821Z,59
2017-10-02T12:25:47.907Z,59
2017-10-02T12:26:55.989Z,59
2017-10-02T12:28:04.075Z,59
2017-10-02T12:29:12.162Z,59
2017-10-02T12:30:20.247Z,59
2017-10-02T12:31:28.333Z,59
2017-10-02T12:32:36.425Z,59
2017-10-02T12:33:44.506Z,59
2017-10-02T12:34:52.592Z,59
2017-10-02T12:36:01.063Z,59
2017-10-02T12:37:09.162Z,59
2017-10-02T12:38:16.850Z,59
2017-10-02T12:39:24.932Z,59
2017-10-02T12:40:33.019Z,59
2017-10-02T12:41:41.108Z,59
2017-10-02T12:42:49.191Z,59
2017-10-02T12:43:57.278Z,59
2017-10-02T12:45:05.364Z,59
2017-10-02T12:46:13.450Z,59
2017-10-02T12:47:21.535Z,59
2017-10-02T12:48:29.620Z,59
2017-10-02T12:49:37.708Z,59
2017-10-02T12:50:45.795Z,59
2017-10-02T12:51:53.939Z,59
2017-10-02T12:53:01.967Z,59
2017-10-02T12:54:10.052Z,59
2017-10-02T12:55:18.137Z,59
2017-10-02T12:56:26.224Z,59
2017-10-02T12:57:34.307Z,59
2017-10-02T12:58:42.395Z,59
2017-10-02T12:59:50.480Z,60
2017-10-02T13:00:58.566Z,60
2017-10-02T13:02:06.653Z,60
2017-10-02T13:03:14.740Z,59
2017-10-02T13:04:22.825Z,60
2017-10-02T13:05:30.913Z,60
2017-10-02T13:06:38.997Z,59
2017-10-02T13:07:47.081Z,59
2017-10-02T13:08:55.168Z,59
2017-10-02T13:10:03.255Z,60
2017-10-02T13:11:11.347Z,59
2017-10-02T13:12:19.431Z,59
2017-10-02T13:13:27.513Z,59
2017-10-02T13:14:35.601Z,59
2017-10-02T13:15:43.685Z,59
2017-10-02T13:16:51.774Z,59
2017-10-02T13:17:59.855Z,59
2017-10-02T13:19:07.941Z,59
2017-10-02T13:20:16.113Z,59
2017-10-02T13:21:24.114Z,59
2017-10-02T13:22:32.201Z,59
2017-10-02T13:23:40.288Z,59
2017-10-02T13:24:48.377Z,59
2017-10-02T13:25:56.460Z,59
2017-10-02T13:27:04.547Z,59
2017-10-02T13:28:12.628Z,59
2017-10-02T13:29:20.740Z,59
2017-10-02T13:30:28.803Z,59
2017-10-02T13:31:36.889Z,59
2017-10-02T13:32:44.989Z,59
2017-10-02T13:33:53.068Z,59
2017-10-02T13:35:01.155Z,59
2017-10-02T13:36:09.251Z,59
2017-10-02T13:37:17.339Z,59
2017-10-02T13:38:25.424Z,59
2017-10-02T13:39:33.514Z,59
2017-10-02T13:40:41.836Z,59
2017-10-02T13:41:50.597Z,59
2017-10-02T13:42:58.394Z,59
2017-10-02T13:44:06.606Z,59
2017-10-02T13:45:14.197Z,59
2017-10-02T13:46:22.272Z,59
2017-10-02T13:47:30.369Z,59
2017-10-02T13:48:38.455Z,59
2017-10-02T13:49:46.541Z,59
2017-10-02T13:50:54.628Z,59
2017-10-02T13:52:02.720Z,59
2017-10-02T13:53:10.805Z,59
2017-10-02T13:54:18.892Z,58
2017-10-02T13:55:26.978Z,58
2017-10-02T13:56:35.065Z,58
2017-10-02T13:57:43.401Z,58
2017-10-02T13:58:51.445Z,58
2017-10-02T13:59:59.532Z,58
2017-10-02T14:01:07.618Z,58
2017-10-02T14:02:15.715Z,58
2017-10-02T14:03:23.791Z,58
2017-10-02T14:04:31.878Z,58
2017-10-02T14:05:39.968Z,58
2017-10-02T14:06:48.050Z,58
2017-10-02T14:07:56.137Z,58
2017-10-02T14:09:04.225Z,58
2017-10-02T14:10:12.330Z,58
2017-10-02T14:11:20.399Z,58
2017-10-02T14:12:28.485Z,58
2017-10-02T14:13:36.580Z,58
2017-10-02T14:14:44.676Z,59
2017-10-02T14:15:52.753Z,58
2017-10-02T14:17:00.841Z,58
2017-10-02T14:18:08.937Z,58
2017-10-02T14:19:17.023Z,58
2017-10-02T14:20:25.109Z,58
2017-10-02T14:21:33.196Z,58
2017-10-02T14:22:41.284Z,58
2017-10-02T14:23:49.369Z,58
2017-10-02T14:24:57.467Z,58
2017-10-02T14:26:05.544Z,58
2017-10-02T14:27:13.629Z,58
2017-10-02T14:28:21.715Z,58
2017-10-02T14:29:29.801Z,58
2017-10-02T14:30:37.887Z,58
2017-10-02T14:31:45.974Z,58
2017-10-02T14:32:54.061Z,58
2017-10-02T14:34:02.154Z,58
2017-10-02T14:35:10.236Z,58
2017-10-02T14:36:18.323Z,58
2017-10-02T14:37:26.412Z,58
2017-10-02T14:38:34.498Z,58
2017-10-02T14:39:42.581Z,58
2017-10-02T14:40:50.668Z,58
2017-10-02T14:41:58.754Z,58
2017-10-02T14:43:06.841Z,58
2017-10-02T14:44:14.927Z,58
2017-10-02T14:45:23.018Z,58
2017-10-02T14:46:31.107Z,58
2017-10-02T14:47:39.187Z,58
2017-10-02T14:48:47.277Z,58
2017-10-02T14:49:55.361Z,58
2017-10-02T14:51:03.448Z,58
2017-10-02T14:52:11.537Z,58
2017-10-02T14:53:19.641Z,58
2017-10-02T14:54:27.716Z,58
2017-10-02T14:55:35.796Z,58
2017-10-02T14:56:43.883Z,58
2017-10-02T14:57:51.969Z,58
2017-10-02T14:59:00.054Z,58
2017-10-02T15:00:08.141Z,57
2017-10-02T15:01:16.233Z,58
2017-10-02T15:02:24.317Z,58
2017-10-02T15:03:32.403Z,58
2017-10-02T15:04:40.490Z,58
2017-10-02T15:05:48.585Z,58
2017-10-02T15:06:56.673Z,58
2017-10-02T15:08:04.771Z,58
2017-10-02T15:09:12.864Z,58
2017-10-02T15:10:20.958Z,58
2017-10-02T15:11:29.038Z,58
2017-10-02T15:12:37.124Z,58
2017-10-02T15:13:45.311Z,58
2017-10-02T15:14:53.416Z,58
2017-10-02T15:16:01.483Z,58
2017-10-02T15:17:09.570Z,58
2017-10-02T15:18:17.656Z,58
2017-10-02T15:19:25.742Z,58
2017-10-02T15:20:33.848Z,58
2017-10-02T15:21:41.922Z,58
2017-10-02T15:22:50.002Z,58
2017-10-02T15:23:58.091Z,58
2017-10-02T15:25:06.177Z,58
2017-10-02T15:26:14.265Z,58
2017-10-02T15:27:22.352Z,57
2017-10-02T15:28:30.438Z,58
2017-10-02T15:29:38.525Z,58
2017-10-02T15:30:46.610Z,58
2017-10-02T15:31:54.714Z,58
2017-10-02T15:33:02.796Z,58
2017-10-02T15:34:10.885Z,58
2017-10-02T15:35:19.047Z,58
2017-10-02T15:36:27.054Z,58
2017-10-02T15:37:35.141Z,58
2017-10-02T15:38:43.230Z,58
2017-10-02T15:39:51.316Z,58
2017-10-02T15:40:59.404Z,58
2017-10-02T15:42:07.491Z,58
2017-10-02T15:43:15.577Z,58
2017-10-02T15:44:23.663Z,58
2017-10-02T15:45:31.752Z,58
2017-10-02T15:46:39.838Z,58
2017-10-02T15:47:47.928Z,58
2017-10-02T15:48:56.010Z,58
2017-10-02T15:50:04.105Z,57
2017-10-02T15:51:12.185Z,57
2017-10-02T15:52:20.271Z,57
2017-10-02T15:53:28.358Z,58
2017-10-02T15:54:36.447Z,57
2017-10-02T15:55:44.531Z,57
2017-10-02T15:56:52.618Z,57
2017-10-02T15:58:00.716Z,57
2017-10-02T15:59:08.803Z,57
2017-10-02T16:00:16.890Z,57
2017-10-02T16:01:24.982Z,57
2017-10-02T16:02:33.065Z,58
2017-10-02T16:03:41.234Z,57
2017-10-02T16:04:49.321Z,57
2017-10-02T16:05:57.412Z,57
2017-10-02T16:07:05.497Z,57
2017-10-02T16:08:13.584Z,57
2017-10-02T16:09:21.670Z,57
2017-10-02T16:10:29.759Z,57
2017-10-02T16:11:37.845Z,57